GLT1 KCVG-KBFI
Flight info
| Callsign | GLT1 |
|---|---|
| Flight time | 3h 52m |
| Altitude | 43000 |
| Route | LOVEY8 HELIS DSM ONL Q152 IKFOM KU06O KU12M MLP GLASR3 |
| Aircraft | C750/M-VGDW/C |
Departure
| Time | 2026-04-26 05:52 |
|---|---|
| Airport | Cincinnati Northern Kentucky International Airport (KCVG) |
Arrival
| Time | 2026-04-26 09:44 |
|---|---|
| Airport | King County International Airport - Boeing Field (KBFI) |
| Time | Latitude | Longitude | Altitude | Speed | Heading |
|---|---|---|---|---|---|
| 2026-04-26 05:30 | 39.04332 | -84.65628 | 875 ft | 0 kts | 268° |
| 2026-04-26 05:48 | 39.04344 | -84.65647 | 875 ft | 7 kts | 335° |
| 2026-04-26 05:48 | 39.04393 | -84.65677 | 875 ft | 7 kts | 304° |
| 2026-04-26 05:49 | 39.04444 | -84.65704 | 876 ft | 9 kts | 347° |
| 2026-04-26 05:49 | 39.04470 | -84.65886 | 876 ft | 11 kts | 295° |
| 2026-04-26 05:49 | 39.04533 | -84.65921 | 877 ft | 12 kts | 1° |
| 2026-04-26 05:50 | 39.04619 | -84.65943 | 878 ft | 12 kts | 306° |
| 2026-04-26 05:50 | 39.04628 | -84.66071 | 878 ft | 18 kts | 270° |
| 2026-04-26 05:50 | 39.04628 | -84.66256 | 878 ft | 22 kts | 270° |
| 2026-04-26 05:50 | 39.04629 | -84.66448 | 881 ft | 22 kts | 270° |
| 2026-04-26 05:51 | 39.04629 | -84.66639 | 881 ft | 20 kts | 270° |
| 2026-04-26 05:51 | 39.04629 | -84.66808 | 883 ft | 17 kts | 270° |
| 2026-04-26 05:51 | 39.04710 | -84.66871 | 883 ft | 38 kts | 360° |
| 2026-04-26 05:51 | 39.05306 | -84.66867 | 878 ft | 125 kts | 0° |
| 2026-04-26 05:52 | 39.06297 | -84.66863 | 1132 ft | 150 kts | 1° |
| 2026-04-26 05:52 | 39.07376 | -84.66877 | 1700 ft | 163 kts | 3° |
| 2026-04-26 05:52 | 39.08555 | -84.67127 | 2228 ft | 184 kts | 341° |
| 2026-04-26 05:52 | 39.09700 | -84.68183 | 2565 ft | 219 kts | 324° |
| 2026-04-26 05:53 | 39.10926 | -84.69504 | 2973 ft | 245 kts | 325° |
| 2026-04-26 05:53 | 39.12298 | -84.70926 | 3599 ft | 256 kts | 325° |
| 2026-04-26 05:53 | 39.13689 | -84.72375 | 4499 ft | 259 kts | 325° |
| 2026-04-26 05:53 | 39.15059 | -84.73936 | 5242 ft | 270 kts | 314° |
| 2026-04-26 05:54 | 39.15853 | -84.76157 | 6056 ft | 279 kts | 285° |
| 2026-04-26 05:54 | 39.15802 | -84.78661 | 6876 ft | 283 kts | 257° |
| 2026-04-26 05:54 | 39.15040 | -84.81052 | 7664 ft | 289 kts | 246° |
| 2026-04-26 05:54 | 39.14168 | -84.83413 | 8532 ft | 294 kts | 245° |
| 2026-04-26 05:55 | 39.13310 | -84.85819 | 9420 ft | 296 kts | 247° |
| 2026-04-26 05:55 | 39.12454 | -84.88280 | 10119 ft | 304 kts | 246° |
| 2026-04-26 05:55 | 39.11563 | -84.90809 | 10427 ft | 326 kts | 246° |
| 2026-04-26 05:55 | 39.10582 | -84.93577 | 10493 ft | 353 kts | 246° |
| 2026-04-26 05:56 | 39.09528 | -84.96535 | 10720 ft | 370 kts | 246° |
| 2026-04-26 05:56 | 39.08472 | -84.99546 | 11463 ft | 370 kts | 247° |
| 2026-04-26 05:56 | 39.07917 | -85.02789 | 11872 ft | 375 kts | 270° |
| 2026-04-26 05:56 | 39.08341 | -85.06082 | 12564 ft | 372 kts | 291° |
| 2026-04-26 05:57 | 39.09404 | -85.09101 | 13222 ft | 370 kts | 298° |
| 2026-04-26 05:57 | 39.10565 | -85.12071 | 13863 ft | 372 kts | 299° |
| 2026-04-26 05:57 | 39.11714 | -85.15072 | 14488 ft | 376 kts | 298° |
| 2026-04-26 05:57 | 39.12839 | -85.18119 | 15117 ft | 377 kts | 297° |
| 2026-04-26 05:58 | 39.13963 | -85.21140 | 15690 ft | 380 kts | 298° |
| 2026-04-26 05:58 | 39.15126 | -85.24212 | 16277 ft | 381 kts | 298° |
| 2026-04-26 05:58 | 39.16289 | -85.27297 | 16835 ft | 384 kts | 297° |
| 2026-04-26 05:58 | 39.17452 | -85.30411 | 17447 ft | 386 kts | 297° |
| 2026-04-26 05:59 | 39.18619 | -85.33540 | 18052 ft | 388 kts | 297° |
| 2026-04-26 05:59 | 39.19798 | -85.36689 | 18538 ft | 394 kts | 297° |
| 2026-04-26 05:59 | 39.21009 | -85.39899 | 18988 ft | 400 kts | 298° |
| 2026-04-26 05:59 | 39.22604 | -85.42861 | 19372 ft | 405 kts | 311° |
| 2026-04-26 06:00 | 39.24404 | -85.45618 | 19925 ft | 409 kts | 310° |
| 2026-04-26 06:00 | 39.26218 | -85.48477 | 20458 ft | 413 kts | 308° |
| 2026-04-26 06:00 | 39.27980 | -85.51300 | 21054 ft | 415 kts | 308° |
| 2026-04-26 06:00 | 39.28958 | -85.52852 | 21426 ft | 415 kts | 308° |
| 2026-04-26 06:01 | 39.30786 | -85.55719 | 22103 ft | 413 kts | 308° |
| 2026-04-26 06:01 | 39.32613 | -85.58580 | 22777 ft | 412 kts | 308° |
| 2026-04-26 06:01 | 39.34431 | -85.61461 | 23387 ft | 413 kts | 308° |
| 2026-04-26 06:01 | 39.36247 | -85.64349 | 23902 ft | 414 kts | 309° |
| 2026-04-26 06:02 | 39.38085 | -85.67256 | 24308 ft | 419 kts | 309° |
| 2026-04-26 06:02 | 39.39942 | -85.70190 | 24818 ft | 421 kts | 309° |
| 2026-04-26 06:02 | 39.41772 | -85.73093 | 25334 ft | 423 kts | 309° |
| 2026-04-26 06:02 | 39.43629 | -85.76053 | 25792 ft | 425 kts | 309° |
| 2026-04-26 06:03 | 39.45504 | -85.79030 | 26242 ft | 428 kts | 309° |
| 2026-04-26 06:03 | 39.47393 | -85.82026 | 26737 ft | 429 kts | 309° |
| 2026-04-26 06:03 | 39.49281 | -85.85033 | 27217 ft | 431 kts | 309° |
| 2026-04-26 06:03 | 39.51062 | -85.88174 | 27623 ft | 435 kts | 302° |
| 2026-04-26 06:04 | 39.52431 | -85.91672 | 28136 ft | 435 kts | 293° |
| 2026-04-26 06:04 | 39.53313 | -85.95123 | 28558 ft | 438 kts | 285° |
| 2026-04-26 06:04 | 39.53817 | -85.99021 | 29023 ft | 440 kts | 276° |
| 2026-04-26 06:04 | 39.53976 | -86.02929 | 29475 ft | 442 kts | 273° |
| 2026-04-26 06:05 | 39.54129 | -86.06903 | 29888 ft | 444 kts | 274° |
| 2026-04-26 06:05 | 39.54297 | -86.10965 | 30324 ft | 445 kts | 274° |
| 2026-04-26 06:05 | 39.54455 | -86.14989 | 30686 ft | 449 kts | 273° |
| 2026-04-26 06:05 | 39.54602 | -86.18990 | 31070 ft | 451 kts | 273° |
| 2026-04-26 06:06 | 39.54753 | -86.23038 | 31648 ft | 448 kts | 273° |
| 2026-04-26 06:06 | 39.54908 | -86.27047 | 32176 ft | 446 kts | 273° |
| 2026-04-26 06:06 | 39.55060 | -86.31079 | 32674 ft | 446 kts | 273° |
| 2026-04-26 06:06 | 39.55206 | -86.35084 | 33176 ft | 445 kts | 273° |
| 2026-04-26 06:07 | 39.55351 | -86.39078 | 33668 ft | 444 kts | 273° |
| 2026-04-26 06:07 | 39.55498 | -86.43070 | 34222 ft | 442 kts | 273° |
| 2026-04-26 06:07 | 39.55641 | -86.47044 | 34809 ft | 439 kts | 272° |
| 2026-04-26 06:07 | 39.55780 | -86.50990 | 35332 ft | 437 kts | 273° |
| 2026-04-26 06:08 | 39.55917 | -86.54913 | 35786 ft | 437 kts | 272° |
| 2026-04-26 06:08 | 39.56054 | -86.58841 | 36254 ft | 435 kts | 272° |
| 2026-04-26 06:08 | 39.56191 | -86.62769 | 36709 ft | 434 kts | 272° |
| 2026-04-26 06:08 | 39.56325 | -86.66666 | 37320 ft | 428 kts | 272° |
| 2026-04-26 06:09 | 39.56455 | -86.70491 | 37951 ft | 422 kts | 272° |
| 2026-04-26 06:09 | 39.56582 | -86.74291 | 38368 ft | 421 kts | 272° |
| 2026-04-26 06:09 | 39.56706 | -86.78021 | 38755 ft | 420 kts | 272° |
| 2026-04-26 06:09 | 39.56831 | -86.81812 | 39147 ft | 420 kts | 272° |
| 2026-04-26 06:10 | 39.56954 | -86.85594 | 39523 ft | 419 kts | 272° |
| 2026-04-26 06:10 | 39.57075 | -86.89366 | 39871 ft | 420 kts | 272° |
| 2026-04-26 06:10 | 39.57196 | -86.93145 | 40269 ft | 419 kts | 272° |
| 2026-04-26 06:10 | 39.57316 | -86.96934 | 40641 ft | 419 kts | 272° |
| 2026-04-26 06:11 | 39.57435 | -87.00703 | 40987 ft | 420 kts | 272° |
| 2026-04-26 06:11 | 39.57552 | -87.04491 | 41329 ft | 420 kts | 272° |
| 2026-04-26 06:11 | 39.57667 | -87.08279 | 41694 ft | 420 kts | 272° |
| 2026-04-26 06:11 | 39.57782 | -87.12062 | 42030 ft | 420 kts | 272° |
| 2026-04-26 06:12 | 39.57896 | -87.15850 | 42346 ft | 420 kts | 272° |
| 2026-04-26 06:12 | 39.58007 | -87.19596 | 42642 ft | 421 kts | 272° |
| 2026-04-26 06:12 | 39.58118 | -87.23373 | 42942 ft | 417 kts | 272° |
| 2026-04-26 06:13 | 39.58338 | -87.30984 | 43017 ft | 430 kts | 272° |
| 2026-04-26 06:13 | 39.58896 | -87.38816 | 43037 ft | 443 kts | 278° |
| 2026-04-26 06:14 | 39.59786 | -87.46841 | 43047 ft | 456 kts | 277° |
| 2026-04-26 06:14 | 39.60694 | -87.55082 | 43045 ft | 467 kts | 278° |
| 2026-04-26 06:15 | 39.61619 | -87.63482 | 43055 ft | 475 kts | 277° |
| 2026-04-26 06:15 | 39.62549 | -87.72042 | 43051 ft | 481 kts | 278° |
| 2026-04-26 06:16 | 39.63480 | -87.80628 | 43049 ft | 485 kts | 277° |
| 2026-04-26 06:16 | 39.64412 | -87.89318 | 43052 ft | 484 kts | 277° |
| 2026-04-26 06:17 | 39.65337 | -87.97985 | 43042 ft | 485 kts | 278° |
| 2026-04-26 06:17 | 39.66259 | -88.06683 | 43040 ft | 486 kts | 278° |
| 2026-04-26 06:18 | 39.67164 | -88.15301 | 43039 ft | 486 kts | 278° |
| 2026-04-26 06:18 | 39.68071 | -88.23990 | 43033 ft | 485 kts | 278° |
| 2026-04-26 06:19 | 39.68972 | -88.32694 | 43026 ft | 486 kts | 278° |
| 2026-04-26 06:19 | 39.69864 | -88.41369 | 43037 ft | 485 kts | 278° |
| 2026-04-26 06:20 | 39.70751 | -88.50053 | 43035 ft | 485 kts | 278° |
| 2026-04-26 06:20 | 39.71629 | -88.58729 | 43034 ft | 484 kts | 278° |
| 2026-04-26 06:21 | 39.72496 | -88.67341 | 43044 ft | 483 kts | 278° |
| 2026-04-26 06:21 | 39.73360 | -88.76004 | 43043 ft | 484 kts | 278° |
| 2026-04-26 06:22 | 39.74314 | -88.84645 | 43022 ft | 482 kts | 282° |
| 2026-04-26 06:22 | 39.76608 | -88.92821 | 43042 ft | 483 kts | 295° |
| 2026-04-26 06:23 | 39.79590 | -89.00576 | 43050 ft | 483 kts | 295° |
| 2026-04-26 06:23 | 39.82576 | -89.08413 | 43052 ft | 482 kts | 295° |
| 2026-04-26 06:24 | 39.85566 | -89.16237 | 43049 ft | 482 kts | 295° |
| 2026-04-26 06:24 | 39.88533 | -89.24055 | 43050 ft | 481 kts | 295° |
| 2026-04-26 06:25 | 39.91484 | -89.31827 | 43048 ft | 482 kts | 295° |
| 2026-04-26 06:25 | 39.94441 | -89.39654 | 43053 ft | 481 kts | 295° |
| 2026-04-26 06:26 | 39.96900 | -89.46166 | 43058 ft | 481 kts | 295° |
| 2026-04-26 06:26 | 39.99842 | -89.53986 | 43062 ft | 480 kts | 295° |
| 2026-04-26 06:27 | 40.02787 | -89.61829 | 43060 ft | 482 kts | 295° |
| 2026-04-26 06:27 | 40.05732 | -89.69697 | 43056 ft | 482 kts | 295° |
| 2026-04-26 06:28 | 40.08669 | -89.77561 | 43056 ft | 480 kts | 295° |
| 2026-04-26 06:28 | 40.11589 | -89.85405 | 43057 ft | 480 kts | 295° |
| 2026-04-26 06:29 | 40.14491 | -89.93218 | 43060 ft | 480 kts | 295° |
| 2026-04-26 06:29 | 40.17405 | -90.01085 | 43050 ft | 480 kts | 295° |
| 2026-04-26 06:30 | 40.20317 | -90.08968 | 43052 ft | 480 kts | 294° |
| 2026-04-26 06:30 | 40.23201 | -90.16797 | 43045 ft | 480 kts | 294° |
| 2026-04-26 06:31 | 40.26093 | -90.24668 | 43038 ft | 480 kts | 294° |
| 2026-04-26 06:31 | 40.28988 | -90.32567 | 43044 ft | 481 kts | 294° |
| 2026-04-26 06:32 | 40.31885 | -90.40495 | 43055 ft | 482 kts | 294° |
| 2026-04-26 06:32 | 40.34776 | -90.48430 | 43067 ft | 481 kts | 294° |
| 2026-04-26 06:33 | 40.37660 | -90.56363 | 43058 ft | 482 kts | 294° |
| 2026-04-26 06:33 | 40.40520 | -90.64255 | 43050 ft | 482 kts | 294° |
| 2026-04-26 06:34 | 40.43398 | -90.72220 | 43049 ft | 482 kts | 294° |
| 2026-04-26 06:34 | 40.46268 | -90.80179 | 43054 ft | 482 kts | 294° |
| 2026-04-26 06:35 | 40.49138 | -90.88161 | 43044 ft | 483 kts | 294° |
| 2026-04-26 06:35 | 40.52002 | -90.96152 | 43045 ft | 483 kts | 294° |
| 2026-04-26 06:36 | 40.54866 | -91.04162 | 43039 ft | 484 kts | 294° |
| 2026-04-26 06:36 | 40.57704 | -91.12125 | 43028 ft | 483 kts | 294° |
| 2026-04-26 06:37 | 40.60551 | -91.20131 | 43022 ft | 483 kts | 294° |
| 2026-04-26 06:37 | 40.63393 | -91.28150 | 43023 ft | 483 kts | 294° |
| 2026-04-26 06:38 | 40.66232 | -91.36179 | 43025 ft | 483 kts | 294° |
| 2026-04-26 06:38 | 40.69063 | -91.44211 | 43026 ft | 483 kts | 294° |
| 2026-04-26 06:39 | 40.71894 | -91.52265 | 43023 ft | 483 kts | 294° |
| 2026-04-26 06:39 | 40.74700 | -91.60267 | 43027 ft | 483 kts | 294° |
| 2026-04-26 06:40 | 40.77514 | -91.68319 | 43021 ft | 483 kts | 293° |
| 2026-04-26 06:40 | 40.80324 | -91.76383 | 43022 ft | 483 kts | 293° |
| 2026-04-26 06:41 | 40.83135 | -91.84466 | 43023 ft | 485 kts | 293° |
| 2026-04-26 06:41 | 40.85941 | -91.92566 | 43025 ft | 484 kts | 293° |
| 2026-04-26 06:42 | 40.88742 | -92.00670 | 43024 ft | 484 kts | 293° |
| 2026-04-26 06:42 | 40.91516 | -92.08722 | 43021 ft | 484 kts | 293° |
| 2026-04-26 06:43 | 40.94309 | -92.16848 | 43027 ft | 484 kts | 293° |
| 2026-04-26 06:43 | 40.97090 | -92.24966 | 43025 ft | 484 kts | 293° |
| 2026-04-26 06:44 | 40.99870 | -92.33106 | 43006 ft | 484 kts | 293° |
| 2026-04-26 06:44 | 41.02640 | -92.41240 | 43008 ft | 485 kts | 292° |
| 2026-04-26 06:45 | 41.05394 | -92.49345 | 43009 ft | 485 kts | 292° |
| 2026-04-26 06:45 | 41.08153 | -92.57495 | 43008 ft | 484 kts | 292° |
| 2026-04-26 06:46 | 41.10909 | -92.65656 | 43010 ft | 485 kts | 292° |
| 2026-04-26 06:46 | 41.13664 | -92.73835 | 43010 ft | 485 kts | 292° |
| 2026-04-26 06:47 | 41.16403 | -92.82000 | 43009 ft | 484 kts | 292° |
| 2026-04-26 06:47 | 41.19147 | -92.90192 | 43006 ft | 485 kts | 292° |
| 2026-04-26 06:48 | 41.21857 | -92.98319 | 42992 ft | 485 kts | 292° |
| 2026-04-26 06:48 | 41.24582 | -93.06501 | 42994 ft | 484 kts | 292° |
| 2026-04-26 06:49 | 41.27304 | -93.14710 | 42997 ft | 484 kts | 292° |
| 2026-04-26 06:49 | 41.30021 | -93.22922 | 42990 ft | 485 kts | 292° |
| 2026-04-26 06:50 | 41.32727 | -93.31133 | 42983 ft | 484 kts | 292° |
| 2026-04-26 06:50 | 41.35415 | -93.39305 | 42987 ft | 485 kts | 292° |
| 2026-04-26 06:51 | 41.38118 | -93.47552 | 42995 ft | 486 kts | 292° |
| 2026-04-26 06:51 | 41.42164 | -93.59942 | 42991 ft | 485 kts | 291° |
| 2026-04-26 06:52 | 41.44566 | -93.68334 | 42996 ft | 483 kts | 285° |
| 2026-04-26 06:52 | 41.46533 | -93.76923 | 42994 ft | 486 kts | 286° |
| 2026-04-26 06:53 | 41.48514 | -93.85545 | 42998 ft | 485 kts | 285° |
| 2026-04-26 06:53 | 41.50455 | -93.94102 | 42998 ft | 485 kts | 285° |
| 2026-04-26 06:54 | 41.52419 | -94.02717 | 42998 ft | 485 kts | 285° |
| 2026-04-26 06:54 | 41.54359 | -94.11329 | 42993 ft | 484 kts | 285° |
| 2026-04-26 06:55 | 41.56302 | -94.19932 | 42992 ft | 484 kts | 285° |
| 2026-04-26 06:55 | 41.58236 | -94.28566 | 42995 ft | 484 kts | 285° |
| 2026-04-26 06:56 | 41.60166 | -94.37197 | 42996 ft | 484 kts | 285° |
| 2026-04-26 06:56 | 41.62081 | -94.45805 | 42992 ft | 484 kts | 285° |
| 2026-04-26 06:57 | 41.63976 | -94.54355 | 42989 ft | 482 kts | 285° |
| 2026-04-26 06:57 | 41.65879 | -94.62969 | 43010 ft | 483 kts | 285° |
| 2026-04-26 06:58 | 41.67778 | -94.71600 | 43014 ft | 482 kts | 285° |
| 2026-04-26 06:58 | 41.69662 | -94.80200 | 43011 ft | 482 kts | 285° |
| 2026-04-26 06:59 | 41.71540 | -94.88809 | 43013 ft | 481 kts | 285° |
| 2026-04-26 06:59 | 41.73408 | -94.97404 | 43014 ft | 481 kts | 285° |
| 2026-04-26 07:00 | 41.75255 | -95.05942 | 43020 ft | 480 kts | 285° |
| 2026-04-26 07:00 | 41.77108 | -95.14526 | 43025 ft | 479 kts | 284° |
| 2026-04-26 07:01 | 41.78951 | -95.23114 | 43009 ft | 479 kts | 284° |
| 2026-04-26 07:01 | 41.80784 | -95.31686 | 43011 ft | 478 kts | 284° |
| 2026-04-26 07:02 | 41.82610 | -95.40256 | 43014 ft | 478 kts | 284° |
| 2026-04-26 07:02 | 41.84416 | -95.48771 | 43019 ft | 477 kts | 284° |
| 2026-04-26 07:03 | 41.86229 | -95.57351 | 43015 ft | 477 kts | 284° |
| 2026-04-26 07:03 | 41.88032 | -95.65922 | 43020 ft | 477 kts | 284° |
| 2026-04-26 07:04 | 41.89830 | -95.74501 | 43023 ft | 476 kts | 284° |
| 2026-04-26 07:04 | 41.91610 | -95.83032 | 43010 ft | 476 kts | 284° |
| 2026-04-26 07:05 | 41.93391 | -95.91601 | 43008 ft | 476 kts | 284° |
| 2026-04-26 07:05 | 41.95167 | -96.00180 | 43011 ft | 477 kts | 284° |
| 2026-04-26 07:06 | 41.96939 | -96.08777 | 43013 ft | 477 kts | 284° |
| 2026-04-26 07:06 | 41.98701 | -96.17364 | 43015 ft | 477 kts | 284° |
| 2026-04-26 07:07 | 42.00459 | -96.25963 | 43015 ft | 477 kts | 284° |
| 2026-04-26 07:07 | 42.02210 | -96.34566 | 43016 ft | 477 kts | 284° |
| 2026-04-26 07:08 | 42.03947 | -96.43137 | 43019 ft | 478 kts | 284° |
| 2026-04-26 07:08 | 42.05690 | -96.51773 | 43017 ft | 478 kts | 284° |
| 2026-04-26 07:09 | 42.07429 | -96.60425 | 43021 ft | 478 kts | 283° |
| 2026-04-26 07:09 | 42.09160 | -96.69078 | 43033 ft | 478 kts | 283° |
| 2026-04-26 07:11 | 42.13462 | -96.90737 | 43039 ft | 479 kts | 283° |
| 2026-04-26 07:11 | 42.15173 | -96.99421 | 43036 ft | 479 kts | 283° |
| 2026-04-26 07:12 | 42.16589 | -97.06635 | 43037 ft | 479 kts | 283° |
| 2026-04-26 07:12 | 42.18566 | -97.16748 | 43042 ft | 479 kts | 283° |
| 2026-04-26 07:13 | 42.19977 | -97.24004 | 43042 ft | 478 kts | 283° |
| 2026-04-26 07:13 | 42.21654 | -97.32652 | 43041 ft | 479 kts | 283° |
| 2026-04-26 07:14 | 42.23329 | -97.41339 | 43042 ft | 478 kts | 282° |
| 2026-04-26 07:14 | 42.24995 | -97.50011 | 43040 ft | 478 kts | 282° |
| 2026-04-26 07:15 | 42.26655 | -97.58689 | 43050 ft | 477 kts | 282° |
| 2026-04-26 07:15 | 42.28308 | -97.67369 | 43051 ft | 477 kts | 282° |
| 2026-04-26 07:16 | 42.29955 | -97.76063 | 43060 ft | 476 kts | 282° |
| 2026-04-26 07:16 | 42.31582 | -97.84683 | 43060 ft | 476 kts | 282° |
| 2026-04-26 07:17 | 42.33214 | -97.93375 | 43061 ft | 476 kts | 282° |
| 2026-04-26 07:17 | 42.34841 | -98.02077 | 43062 ft | 476 kts | 282° |
| 2026-04-26 07:18 | 42.36457 | -98.10756 | 43070 ft | 476 kts | 282° |
| 2026-04-26 07:18 | 42.38068 | -98.19454 | 43071 ft | 476 kts | 282° |
| 2026-04-26 07:19 | 42.39673 | -98.28158 | 43068 ft | 476 kts | 282° |
| 2026-04-26 07:19 | 42.41263 | -98.36818 | 43079 ft | 477 kts | 282° |
| 2026-04-26 07:20 | 42.42861 | -98.45562 | 43084 ft | 478 kts | 282° |
| 2026-04-26 07:20 | 42.44450 | -98.54304 | 43088 ft | 478 kts | 282° |
| 2026-04-26 07:21 | 42.46036 | -98.63061 | 43088 ft | 479 kts | 282° |
| 2026-04-26 07:21 | 42.47971 | -98.71710 | 43088 ft | 482 kts | 290° |
| 2026-04-26 07:22 | 42.50557 | -98.80113 | 43102 ft | 483 kts | 289° |
| 2026-04-26 07:22 | 42.53099 | -98.88491 | 43095 ft | 483 kts | 289° |
| 2026-04-26 07:23 | 42.55671 | -98.96921 | 43097 ft | 484 kts | 289° |
| 2026-04-26 07:23 | 42.58224 | -99.05363 | 43099 ft | 484 kts | 289° |
| 2026-04-26 07:24 | 42.60786 | -99.13833 | 43097 ft | 484 kts | 289° |
| 2026-04-26 07:24 | 42.63331 | -99.22293 | 43089 ft | 484 kts | 289° |
| 2026-04-26 07:25 | 42.65876 | -99.30770 | 43083 ft | 484 kts | 289° |
| 2026-04-26 07:25 | 42.68373 | -99.39192 | 43100 ft | 485 kts | 289° |
| 2026-04-26 07:26 | 42.70936 | -99.47669 | 43090 ft | 484 kts | 289° |
| 2026-04-26 07:26 | 42.73442 | -99.56175 | 43085 ft | 484 kts | 289° |
| 2026-04-26 07:27 | 42.75975 | -99.64683 | 43088 ft | 484 kts | 289° |
| 2026-04-26 07:27 | 42.78484 | -99.73204 | 43089 ft | 485 kts | 289° |
| 2026-04-26 07:28 | 42.81000 | -99.81743 | 43088 ft | 485 kts | 289° |
| 2026-04-26 07:28 | 42.83500 | -99.90275 | 43087 ft | 485 kts | 289° |
| 2026-04-26 07:29 | 42.85974 | -99.98737 | 43077 ft | 484 kts | 289° |
| 2026-04-26 07:29 | 42.88463 | -100.07281 | 43075 ft | 486 kts | 288° |
| 2026-04-26 07:30 | 42.90958 | -100.15871 | 43081 ft | 487 kts | 288° |
| 2026-04-26 07:30 | 42.93443 | -100.24459 | 43082 ft | 487 kts | 288° |
| 2026-04-26 07:31 | 42.95923 | -100.33064 | 43081 ft | 487 kts | 288° |
| 2026-04-26 07:31 | 42.98382 | -100.41617 | 43087 ft | 487 kts | 288° |
| 2026-04-26 07:32 | 43.00851 | -100.50237 | 43086 ft | 487 kts | 288° |
| 2026-04-26 07:32 | 43.03314 | -100.58865 | 43089 ft | 487 kts | 288° |
| 2026-04-26 07:33 | 43.05776 | -100.67524 | 43077 ft | 487 kts | 288° |
| 2026-04-26 07:33 | 43.08228 | -100.76173 | 43073 ft | 488 kts | 288° |
| 2026-04-26 07:34 | 43.10677 | -100.84840 | 43065 ft | 488 kts | 288° |
| 2026-04-26 07:34 | 43.13115 | -100.93503 | 43058 ft | 487 kts | 288° |
| 2026-04-26 07:35 | 43.15532 | -101.02120 | 43057 ft | 488 kts | 288° |
| 2026-04-26 07:35 | 43.17955 | -101.10785 | 43056 ft | 488 kts | 288° |
| 2026-04-26 07:36 | 43.20379 | -101.19488 | 43058 ft | 489 kts | 288° |
| 2026-04-26 07:36 | 43.22802 | -101.28214 | 43060 ft | 489 kts | 288° |
| 2026-04-26 07:37 | 43.25211 | -101.36928 | 43058 ft | 488 kts | 288° |
| 2026-04-26 07:37 | 43.27615 | -101.45650 | 43058 ft | 489 kts | 288° |
| 2026-04-26 07:38 | 43.30023 | -101.54413 | 43062 ft | 490 kts | 287° |
| 2026-04-26 07:38 | 43.32418 | -101.63170 | 43062 ft | 490 kts | 287° |
| 2026-04-26 07:39 | 43.34812 | -101.71946 | 43059 ft | 490 kts | 287° |
| 2026-04-26 07:39 | 43.37182 | -101.80669 | 43062 ft | 491 kts | 287° |
| 2026-04-26 07:40 | 43.39569 | -101.89483 | 43068 ft | 491 kts | 287° |
| 2026-04-26 07:40 | 43.41941 | -101.98279 | 43068 ft | 491 kts | 287° |
| 2026-04-26 07:41 | 43.44314 | -102.07106 | 43064 ft | 491 kts | 287° |
| 2026-04-26 07:41 | 43.46678 | -102.15935 | 43068 ft | 491 kts | 287° |
| 2026-04-26 07:42 | 43.49037 | -102.24773 | 43068 ft | 491 kts | 287° |
| 2026-04-26 07:42 | 43.51368 | -102.33542 | 43069 ft | 491 kts | 287° |
| 2026-04-26 07:43 | 43.53713 | -102.42395 | 43067 ft | 491 kts | 287° |
| 2026-04-26 07:43 | 43.56053 | -102.51255 | 43069 ft | 492 kts | 287° |
| 2026-04-26 07:44 | 43.58385 | -102.60131 | 43068 ft | 491 kts | 287° |
| 2026-04-26 07:44 | 43.60692 | -102.68935 | 43070 ft | 490 kts | 287° |
| 2026-04-26 07:45 | 43.63006 | -102.77797 | 43072 ft | 491 kts | 287° |
| 2026-04-26 07:45 | 43.65314 | -102.86678 | 43068 ft | 489 kts | 287° |
| 2026-04-26 07:46 | 43.67595 | -102.95483 | 43068 ft | 489 kts | 287° |
| 2026-04-26 07:46 | 43.69883 | -103.04346 | 43069 ft | 490 kts | 287° |
| 2026-04-26 07:47 | 43.72162 | -103.13210 | 43045 ft | 489 kts | 287° |
| 2026-04-26 07:47 | 43.74438 | -103.22099 | 43035 ft | 489 kts | 287° |
| 2026-04-26 07:48 | 43.76702 | -103.30972 | 43030 ft | 488 kts | 287° |
| 2026-04-26 07:48 | 43.78955 | -103.39837 | 43021 ft | 488 kts | 287° |
| 2026-04-26 07:49 | 43.81200 | -103.48694 | 43021 ft | 488 kts | 287° |
| 2026-04-26 07:49 | 43.83413 | -103.57474 | 43010 ft | 488 kts | 287° |
| 2026-04-26 07:50 | 43.86774 | -103.70855 | 43010 ft | 488 kts | 287° |
| 2026-04-26 07:50 | 43.88993 | -103.79738 | 43009 ft | 488 kts | 286° |
| 2026-04-26 07:51 | 43.91209 | -103.88638 | 43010 ft | 487 kts | 286° |
| 2026-04-26 07:51 | 43.93415 | -103.97533 | 43015 ft | 487 kts | 286° |
| 2026-04-26 07:52 | 43.95601 | -104.06388 | 43020 ft | 488 kts | 286° |
| 2026-04-26 07:52 | 43.97793 | -104.15294 | 43029 ft | 487 kts | 286° |
| 2026-04-26 07:53 | 43.99978 | -104.24212 | 43029 ft | 488 kts | 286° |
| 2026-04-26 07:53 | 44.02163 | -104.33157 | 43026 ft | 489 kts | 286° |
| 2026-04-26 07:54 | 44.04328 | -104.42063 | 43029 ft | 489 kts | 286° |
| 2026-04-26 07:54 | 44.06502 | -104.51039 | 43023 ft | 490 kts | 286° |
| 2026-04-26 07:55 | 44.08672 | -104.60036 | 43025 ft | 491 kts | 286° |
| 2026-04-26 07:55 | 44.10840 | -104.69056 | 43013 ft | 492 kts | 286° |
| 2026-04-26 07:56 | 44.13001 | -104.78087 | 43013 ft | 492 kts | 286° |
| 2026-04-26 07:56 | 44.15164 | -104.87158 | 43010 ft | 494 kts | 285° |
| 2026-04-26 07:57 | 44.17307 | -104.96189 | 43002 ft | 494 kts | 285° |
| 2026-04-26 07:57 | 44.19460 | -105.05291 | 43003 ft | 495 kts | 285° |
| 2026-04-26 07:58 | 44.21607 | -105.14412 | 42993 ft | 495 kts | 285° |
| 2026-04-26 07:58 | 44.23394 | -105.22027 | 42992 ft | 496 kts | 285° |
| 2026-04-26 07:59 | 44.25509 | -105.31176 | 42979 ft | 496 kts | 284° |
| 2026-04-26 07:59 | 44.27491 | -105.40376 | 42990 ft | 495 kts | 284° |
| 2026-04-26 08:00 | 44.29543 | -105.49553 | 42985 ft | 496 kts | 284° |
| 2026-04-26 08:00 | 44.31545 | -105.58776 | 42990 ft | 495 kts | 284° |
| 2026-04-26 08:01 | 44.33563 | -105.67973 | 42986 ft | 495 kts | 284° |
| 2026-04-26 08:01 | 44.35560 | -105.77190 | 42985 ft | 495 kts | 284° |
| 2026-04-26 08:02 | 44.37556 | -105.86409 | 42981 ft | 496 kts | 284° |
| 2026-04-26 08:02 | 44.39531 | -105.95584 | 42973 ft | 495 kts | 284° |
| 2026-04-26 08:03 | 44.41509 | -106.04807 | 42964 ft | 495 kts | 284° |
| 2026-04-26 08:03 | 44.43482 | -106.14049 | 42964 ft | 497 kts | 284° |
| 2026-04-26 08:04 | 44.45452 | -106.23321 | 42954 ft | 496 kts | 284° |
| 2026-04-26 08:04 | 44.47414 | -106.32590 | 42942 ft | 497 kts | 284° |
| 2026-04-26 08:05 | 44.49371 | -106.41885 | 42943 ft | 497 kts | 284° |
| 2026-04-26 08:05 | 44.51296 | -106.51046 | 44125 ft | 469 kts | 284° |
| 2026-04-26 08:06 | 44.52190 | -106.55310 | 45361 ft | 445 kts | 284° |
| 2026-04-26 08:06 | 44.53041 | -106.59408 | 45640 ft | 445 kts | 283° |
| 2026-04-26 08:06 | 44.53905 | -106.63595 | 45753 ft | 448 kts | 284° |
| 2026-04-26 08:06 | 44.54776 | -106.67783 | 45893 ft | 448 kts | 284° |
| 2026-04-26 08:07 | 44.56518 | -106.76173 | 46101 ft | 448 kts | 283° |
| 2026-04-26 08:07 | 44.58250 | -106.84585 | 46268 ft | 449 kts | 284° |
| 2026-04-26 08:08 | 44.59653 | -106.91408 | 46401 ft | 449 kts | 283° |
| 2026-04-26 08:08 | 44.61370 | -106.99803 | 46559 ft | 450 kts | 283° |
| 2026-04-26 08:09 | 44.62231 | -107.04020 | 46735 ft | 447 kts | 283° |
| 2026-04-26 08:09 | 44.63077 | -107.08167 | 46941 ft | 440 kts | 283° |
| 2026-04-26 08:09 | 44.64766 | -107.16504 | 46911 ft | 445 kts | 283° |
| 2026-04-26 08:10 | 44.66465 | -107.24900 | 46926 ft | 448 kts | 283° |
| 2026-04-26 08:10 | 44.68167 | -107.33366 | 46936 ft | 451 kts | 283° |
| 2026-04-26 08:11 | 44.69877 | -107.41896 | 46931 ft | 455 kts | 283° |
| 2026-04-26 08:11 | 44.71580 | -107.50432 | 46926 ft | 458 kts | 283° |
| 2026-04-26 08:12 | 44.73301 | -107.59092 | 46921 ft | 461 kts | 283° |
| 2026-04-26 08:12 | 44.75027 | -107.67819 | 46909 ft | 464 kts | 283° |
| 2026-04-26 08:13 | 44.76755 | -107.76597 | 46915 ft | 467 kts | 283° |
| 2026-04-26 08:13 | 44.78489 | -107.85442 | 46914 ft | 470 kts | 283° |
| 2026-04-26 08:14 | 44.80228 | -107.94353 | 46911 ft | 473 kts | 283° |
| 2026-04-26 08:14 | 44.81970 | -108.03325 | 46919 ft | 476 kts | 283° |
| 2026-04-26 08:15 | 44.83715 | -108.12349 | 46918 ft | 479 kts | 283° |
| 2026-04-26 08:15 | 44.85449 | -108.21361 | 46912 ft | 481 kts | 283° |
| 2026-04-26 08:16 | 44.87197 | -108.30484 | 46909 ft | 483 kts | 283° |
| 2026-04-26 08:16 | 44.88941 | -108.39635 | 46918 ft | 484 kts | 283° |
| 2026-04-26 08:17 | 44.90683 | -108.48819 | 46914 ft | 485 kts | 283° |
| 2026-04-26 08:17 | 44.92919 | -108.57816 | 46909 ft | 489 kts | 293° |
| 2026-04-26 08:18 | 44.95860 | -108.66494 | 46905 ft | 490 kts | 292° |
| 2026-04-26 08:18 | 44.98716 | -108.75179 | 46904 ft | 491 kts | 292° |
| 2026-04-26 08:19 | 45.01626 | -108.83907 | 46884 ft | 492 kts | 292° |
| 2026-04-26 08:19 | 45.04517 | -108.92700 | 46899 ft | 492 kts | 292° |
| 2026-04-26 08:20 | 45.07414 | -109.01484 | 46902 ft | 493 kts | 292° |
| 2026-04-26 08:20 | 45.10282 | -109.10242 | 46903 ft | 493 kts | 292° |
| 2026-04-26 08:21 | 45.13169 | -109.19068 | 46902 ft | 494 kts | 292° |
| 2026-04-26 08:21 | 45.16048 | -109.27909 | 46904 ft | 494 kts | 292° |
| 2026-04-26 08:22 | 45.18921 | -109.36759 | 46902 ft | 494 kts | 292° |
| 2026-04-26 08:22 | 45.21787 | -109.45619 | 46904 ft | 494 kts | 292° |
| 2026-04-26 08:23 | 45.24646 | -109.54484 | 46910 ft | 494 kts | 292° |
| 2026-04-26 08:23 | 45.27482 | -109.63312 | 46911 ft | 495 kts | 292° |
| 2026-04-26 08:24 | 45.30335 | -109.72219 | 46915 ft | 495 kts | 292° |
| 2026-04-26 08:24 | 45.33182 | -109.81141 | 46909 ft | 496 kts | 292° |
| 2026-04-26 08:25 | 45.36025 | -109.90078 | 46916 ft | 496 kts | 292° |
| 2026-04-26 08:25 | 45.38866 | -109.99043 | 46914 ft | 497 kts | 292° |
| 2026-04-26 08:26 | 45.41685 | -110.07968 | 46918 ft | 497 kts | 292° |
| 2026-04-26 08:26 | 45.44499 | -110.16908 | 46917 ft | 492 kts | 292° |
| 2026-04-26 08:27 | 45.47279 | -110.25772 | 46901 ft | 489 kts | 292° |
| 2026-04-26 08:27 | 45.50048 | -110.34631 | 46724 ft | 491 kts | 292° |
| 2026-04-26 08:28 | 45.51448 | -110.39125 | 46229 ft | 500 kts | 292° |
| 2026-04-26 08:28 | 45.52868 | -110.43687 | 45765 ft | 504 kts | 292° |
| 2026-04-26 08:28 | 45.54290 | -110.48261 | 45339 ft | 505 kts | 292° |
| 2026-04-26 08:28 | 45.55708 | -110.52831 | 44920 ft | 505 kts | 292° |
| 2026-04-26 08:29 | 45.57129 | -110.57422 | 44496 ft | 504 kts | 292° |
| 2026-04-26 08:29 | 45.58538 | -110.61984 | 44075 ft | 502 kts | 292° |
| 2026-04-26 08:29 | 45.59941 | -110.66533 | 43647 ft | 500 kts | 292° |
| 2026-04-26 08:29 | 45.61339 | -110.71071 | 43217 ft | 498 kts | 291° |
| 2026-04-26 08:30 | 45.62726 | -110.75585 | 42871 ft | 493 kts | 291° |
| 2026-04-26 08:30 | 45.64088 | -110.80023 | 42910 ft | 489 kts | 291° |
| 2026-04-26 08:30 | 45.66843 | -110.89035 | 42893 ft | 500 kts | 291° |
| 2026-04-26 08:31 | 45.69629 | -110.98164 | 42893 ft | 507 kts | 291° |
| 2026-04-26 08:31 | 45.72453 | -111.07464 | 42890 ft | 511 kts | 291° |
| 2026-04-26 08:32 | 45.75286 | -111.16822 | 42886 ft | 511 kts | 291° |
| 2026-04-26 08:32 | 45.78108 | -111.26180 | 42883 ft | 512 kts | 291° |
| 2026-04-26 08:33 | 45.80923 | -111.35551 | 42884 ft | 512 kts | 291° |
| 2026-04-26 08:33 | 45.83717 | -111.44886 | 42885 ft | 513 kts | 291° |
| 2026-04-26 08:34 | 45.86544 | -111.54365 | 42882 ft | 514 kts | 291° |
| 2026-04-26 08:34 | 45.89329 | -111.63741 | 42881 ft | 514 kts | 291° |
| 2026-04-26 08:35 | 45.92133 | -111.73215 | 42885 ft | 514 kts | 291° |
| 2026-04-26 08:35 | 45.94920 | -111.82671 | 42881 ft | 515 kts | 291° |
| 2026-04-26 08:36 | 45.97696 | -111.92122 | 42876 ft | 515 kts | 291° |
| 2026-04-26 08:36 | 46.00767 | -112.01416 | 42858 ft | 517 kts | 300° |
| 2026-04-26 08:37 | 46.05067 | -112.09775 | 42877 ft | 520 kts | 306° |
| 2026-04-26 08:37 | 46.09370 | -112.18135 | 42877 ft | 519 kts | 304° |
| 2026-04-26 08:38 | 46.13659 | -112.26500 | 42876 ft | 519 kts | 305° |
| 2026-04-26 08:38 | 46.17942 | -112.34823 | 42872 ft | 520 kts | 304° |
| 2026-04-26 08:39 | 46.22218 | -112.43228 | 42870 ft | 520 kts | 304° |
| 2026-04-26 08:39 | 46.26522 | -112.51646 | 42875 ft | 520 kts | 304° |
| 2026-04-26 08:40 | 46.30800 | -112.60094 | 42876 ft | 520 kts | 304° |
| 2026-04-26 08:40 | 46.35091 | -112.68551 | 42868 ft | 521 kts | 304° |
| 2026-04-26 08:41 | 46.39338 | -112.76976 | 42870 ft | 521 kts | 304° |
| 2026-04-26 08:41 | 46.43625 | -112.85485 | 42868 ft | 521 kts | 304° |
| 2026-04-26 08:42 | 46.47867 | -112.93946 | 42873 ft | 522 kts | 304° |
| 2026-04-26 08:42 | 46.52141 | -113.02487 | 42872 ft | 522 kts | 304° |
| 2026-04-26 08:43 | 46.56379 | -113.10985 | 42871 ft | 522 kts | 304° |
| 2026-04-26 08:43 | 46.60637 | -113.19551 | 42866 ft | 522 kts | 304° |
| 2026-04-26 08:44 | 46.64201 | -113.26740 | 42875 ft | 523 kts | 304° |
| 2026-04-26 08:44 | 46.69143 | -113.36737 | 42875 ft | 523 kts | 304° |
| 2026-04-26 08:45 | 46.73384 | -113.45348 | 42880 ft | 523 kts | 304° |
| 2026-04-26 08:45 | 46.77592 | -113.53916 | 42876 ft | 523 kts | 304° |
| 2026-04-26 08:46 | 46.81831 | -113.62574 | 42883 ft | 523 kts | 304° |
| 2026-04-26 08:46 | 46.86062 | -113.71243 | 42881 ft | 523 kts | 304° |
| 2026-04-26 08:47 | 46.90282 | -113.79918 | 42885 ft | 524 kts | 304° |
| 2026-04-26 08:47 | 46.94479 | -113.88570 | 42885 ft | 524 kts | 304° |
| 2026-04-26 08:48 | 46.98684 | -113.97276 | 42884 ft | 524 kts | 304° |
| 2026-04-26 08:48 | 47.02013 | -114.06719 | 42884 ft | 523 kts | 291° |
| 2026-04-26 08:49 | 47.04234 | -114.14981 | 42895 ft | 524 kts | 291° |
| 2026-04-26 08:49 | 47.07123 | -114.24803 | 42896 ft | 524 kts | 292° |
| 2026-04-26 08:50 | 47.09878 | -114.34699 | 42898 ft | 524 kts | 291° |
| 2026-04-26 08:50 | 47.12690 | -114.44557 | 42895 ft | 524 kts | 292° |
| 2026-04-26 08:51 | 47.16848 | -114.59420 | 42894 ft | 525 kts | 292° |
| 2026-04-26 08:52 | 47.19638 | -114.69331 | 42893 ft | 524 kts | 292° |
| 2026-04-26 08:52 | 47.22381 | -114.79224 | 42891 ft | 524 kts | 292° |
| 2026-04-26 08:53 | 47.25141 | -114.89151 | 42893 ft | 524 kts | 291° |
| 2026-04-26 08:53 | 47.27887 | -114.99110 | 42896 ft | 525 kts | 291° |
| 2026-04-26 08:54 | 47.30637 | -115.09097 | 42894 ft | 525 kts | 291° |
| 2026-04-26 08:54 | 47.33355 | -115.19026 | 42880 ft | 526 kts | 291° |
| 2026-04-26 08:55 | 47.36080 | -115.29018 | 42879 ft | 526 kts | 291° |
| 2026-04-26 08:55 | 47.38804 | -115.39049 | 42849 ft | 525 kts | 291° |
| 2026-04-26 08:56 | 47.41518 | -115.49083 | 42838 ft | 526 kts | 291° |
| 2026-04-26 08:56 | 47.44217 | -115.59108 | 42826 ft | 527 kts | 291° |
| 2026-04-26 08:57 | 47.46124 | -115.69516 | 42811 ft | 525 kts | 277° |
| 2026-04-26 08:57 | 47.46626 | -115.80223 | 42834 ft | 526 kts | 273° |
| 2026-04-26 08:58 | 47.47344 | -115.90988 | 42832 ft | 525 kts | 276° |
| 2026-04-26 08:58 | 47.47985 | -116.01775 | 42837 ft | 526 kts | 274° |
| 2026-04-26 08:59 | 47.48616 | -116.12569 | 42835 ft | 526 kts | 275° |
| 2026-04-26 08:59 | 47.49263 | -116.23272 | 42840 ft | 526 kts | 274° |
| 2026-04-26 09:00 | 47.49865 | -116.34100 | 42854 ft | 527 kts | 275° |
| 2026-04-26 09:00 | 47.50496 | -116.44893 | 42856 ft | 526 kts | 274° |
| 2026-04-26 09:01 | 47.51078 | -116.55620 | 42864 ft | 526 kts | 275° |
| 2026-04-26 09:01 | 47.51682 | -116.66428 | 42861 ft | 526 kts | 274° |
| 2026-04-26 09:02 | 47.52254 | -116.77221 | 42870 ft | 526 kts | 274° |
| 2026-04-26 09:02 | 47.52831 | -116.88015 | 42869 ft | 525 kts | 274° |
| 2026-04-26 09:03 | 47.53370 | -116.98791 | 42867 ft | 526 kts | 274° |
| 2026-04-26 09:03 | 47.53948 | -117.09556 | 42864 ft | 526 kts | 274° |
| 2026-04-26 09:04 | 47.54471 | -117.20376 | 42869 ft | 527 kts | 274° |
| 2026-04-26 09:04 | 47.55013 | -117.31198 | 42869 ft | 527 kts | 274° |
| 2026-04-26 09:05 | 47.55528 | -117.42022 | 42871 ft | 527 kts | 274° |
| 2026-04-26 09:05 | 47.56042 | -117.52839 | 42845 ft | 527 kts | 274° |
| 2026-04-26 09:06 | 47.56579 | -117.63660 | 42834 ft | 527 kts | 277° |
| 2026-04-26 09:06 | 47.57634 | -117.74405 | 42861 ft | 528 kts | 279° |
| 2026-04-26 09:07 | 47.58659 | -117.85162 | 42849 ft | 527 kts | 278° |
| 2026-04-26 09:07 | 47.59666 | -117.95861 | 42849 ft | 528 kts | 278° |
| 2026-04-26 09:08 | 47.60686 | -118.06649 | 42854 ft | 528 kts | 278° |
| 2026-04-26 09:08 | 47.61676 | -118.17429 | 42853 ft | 527 kts | 278° |
| 2026-04-26 09:09 | 47.62673 | -118.28215 | 42856 ft | 528 kts | 278° |
| 2026-04-26 09:09 | 47.63646 | -118.39001 | 42847 ft | 527 kts | 278° |
| 2026-04-26 09:10 | 47.64619 | -118.49780 | 42851 ft | 527 kts | 278° |
| 2026-04-26 09:10 | 47.65572 | -118.60559 | 42857 ft | 527 kts | 278° |
| 2026-04-26 09:11 | 47.66522 | -118.71343 | 42857 ft | 527 kts | 277° |
| 2026-04-26 09:11 | 47.67458 | -118.82130 | 42857 ft | 527 kts | 277° |
| 2026-04-26 09:12 | 47.68379 | -118.92846 | 42851 ft | 527 kts | 277° |
| 2026-04-26 09:12 | 47.69297 | -119.03656 | 42862 ft | 527 kts | 277° |
| 2026-04-26 09:13 | 47.70207 | -119.14475 | 42867 ft | 527 kts | 277° |
| 2026-04-26 09:13 | 47.71092 | -119.25148 | 42363 ft | 516 kts | 277° |
| 2026-04-26 09:13 | 47.71523 | -119.30381 | 41687 ft | 503 kts | 277° |
| 2026-04-26 09:14 | 47.71941 | -119.35480 | 41031 ft | 492 kts | 277° |
| 2026-04-26 09:14 | 47.72346 | -119.40461 | 40394 ft | 484 kts | 278° |
| 2026-04-26 09:14 | 47.72746 | -119.45404 | 39757 ft | 478 kts | 278° |
| 2026-04-26 09:14 | 47.73140 | -119.50290 | 39129 ft | 474 kts | 278° |
| 2026-04-26 09:15 | 47.73529 | -119.55144 | 38507 ft | 473 kts | 278° |
| 2026-04-26 09:15 | 47.73916 | -119.60014 | 37879 ft | 475 kts | 278° |
| 2026-04-26 09:15 | 47.74304 | -119.64915 | 37244 ft | 477 kts | 278° |
| 2026-04-26 09:15 | 47.74689 | -119.69808 | 36605 ft | 475 kts | 278° |
| 2026-04-26 09:16 | 47.75065 | -119.74610 | 35987 ft | 473 kts | 278° |
| 2026-04-26 09:16 | 47.75446 | -119.79499 | 35343 ft | 477 kts | 278° |
| 2026-04-26 09:16 | 47.75830 | -119.84440 | 34701 ft | 484 kts | 278° |
| 2026-04-26 09:16 | 47.76210 | -119.89409 | 34063 ft | 482 kts | 278° |
| 2026-04-26 09:17 | 47.76589 | -119.94352 | 33476 ft | 480 kts | 278° |
| 2026-04-26 09:17 | 47.76965 | -119.99280 | 32841 ft | 478 kts | 277° |
| 2026-04-26 09:17 | 47.77336 | -120.04179 | 32198 ft | 477 kts | 277° |
| 2026-04-26 09:17 | 47.77700 | -120.09020 | 31567 ft | 475 kts | 277° |
| 2026-04-26 09:18 | 47.78062 | -120.13871 | 30940 ft | 468 kts | 276° |
| 2026-04-26 09:18 | 47.78417 | -120.18635 | 30329 ft | 461 kts | 276° |
| 2026-04-26 09:18 | 47.78765 | -120.23335 | 29724 ft | 455 kts | 276° |
| 2026-04-26 09:18 | 47.79105 | -120.27989 | 29121 ft | 451 kts | 276° |
| 2026-04-26 09:19 | 47.79444 | -120.32605 | 28516 ft | 447 kts | 276° |
| 2026-04-26 09:19 | 47.79779 | -120.37188 | 27944 ft | 444 kts | 276° |
| 2026-04-26 09:19 | 47.80103 | -120.41701 | 27359 ft | 440 kts | 276° |
| 2026-04-26 09:19 | 47.80426 | -120.46195 | 26784 ft | 436 kts | 276° |
| 2026-04-26 09:20 | 47.80747 | -120.50666 | 26206 ft | 433 kts | 276° |
| 2026-04-26 09:20 | 47.81064 | -120.55112 | 25634 ft | 430 kts | 277° |
| 2026-04-26 09:20 | 47.81374 | -120.59516 | 25067 ft | 426 kts | 277° |
| 2026-04-26 09:20 | 47.81681 | -120.63890 | 24502 ft | 423 kts | 277° |
| 2026-04-26 09:21 | 47.81984 | -120.68220 | 23944 ft | 420 kts | 277° |
| 2026-04-26 09:21 | 47.82280 | -120.72481 | 23396 ft | 417 kts | 277° |
| 2026-04-26 09:21 | 47.82576 | -120.76755 | 22846 ft | 414 kts | 277° |
| 2026-04-26 09:21 | 47.82789 | -120.79859 | 22446 ft | 413 kts | 277° |
| 2026-04-26 09:22 | 47.83054 | -120.83727 | 21946 ft | 411 kts | 278° |
| 2026-04-26 09:22 | 47.83340 | -120.87916 | 21409 ft | 409 kts | 278° |
| 2026-04-26 09:22 | 47.83625 | -120.92116 | 20868 ft | 407 kts | 278° |
| 2026-04-26 09:22 | 47.83907 | -120.96288 | 20332 ft | 404 kts | 278° |
| 2026-04-26 09:23 | 47.84194 | -121.00535 | 19801 ft | 425 kts | 275° |
| 2026-04-26 09:23 | 47.84487 | -121.04927 | 19227 ft | 421 kts | 277° |
| 2026-04-26 09:23 | 47.84765 | -121.09230 | 18678 ft | 413 kts | 277° |
| 2026-04-26 09:23 | 47.85038 | -121.13417 | 18143 ft | 400 kts | 278° |
| 2026-04-26 09:24 | 47.85309 | -121.17473 | 17610 ft | 389 kts | 278° |
| 2026-04-26 09:24 | 47.85574 | -121.21497 | 17105 ft | 391 kts | 278° |
| 2026-04-26 09:24 | 47.85833 | -121.25494 | 16570 ft | 387 kts | 278° |
| 2026-04-26 09:24 | 47.86088 | -121.29445 | 16078 ft | 386 kts | 278° |
| 2026-04-26 09:25 | 47.86340 | -121.33412 | 15596 ft | 383 kts | 278° |
| 2026-04-26 09:25 | 47.86592 | -121.37376 | 15162 ft | 390 kts | 278° |
| 2026-04-26 09:25 | 47.86866 | -121.41546 | 14631 ft | 413 kts | 278° |
| 2026-04-26 09:25 | 47.87124 | -121.45795 | 14039 ft | 415 kts | 278° |
| 2026-04-26 09:26 | 47.87392 | -121.50002 | 13519 ft | 406 kts | 278° |
| 2026-04-26 09:26 | 47.87635 | -121.54199 | 13010 ft | 396 kts | 279° |
| 2026-04-26 09:26 | 47.87900 | -121.58245 | 12479 ft | 395 kts | 279° |
| 2026-04-26 09:26 | 47.88164 | -121.62354 | 11948 ft | 392 kts | 279° |
| 2026-04-26 09:27 | 47.88307 | -121.66405 | 11365 ft | 392 kts | 266° |
| 2026-04-26 09:27 | 47.87660 | -121.70168 | 10971 ft | 364 kts | 244° |
| 2026-04-26 09:27 | 47.86432 | -121.73203 | 10981 ft | 323 kts | 228° |
| 2026-04-26 09:27 | 47.84928 | -121.75424 | 11003 ft | 291 kts | 218° |
| 2026-04-26 09:28 | 47.83440 | -121.77427 | 11002 ft | 290 kts | 218° |
| 2026-04-26 09:28 | 47.81901 | -121.79514 | 11015 ft | 314 kts | 219° |
| 2026-04-26 09:28 | 47.80227 | -121.81781 | 11012 ft | 322 kts | 219° |
| 2026-04-26 09:28 | 47.78640 | -121.83949 | 10817 ft | 299 kts | 219° |
| 2026-04-26 09:29 | 47.77142 | -121.85975 | 10498 ft | 282 kts | 220° |
| 2026-04-26 09:29 | 47.75714 | -121.87891 | 10190 ft | 272 kts | 221° |
| 2026-04-26 09:29 | 47.74308 | -121.89781 | 9885 ft | 271 kts | 223° |
| 2026-04-26 09:29 | 47.72922 | -121.91654 | 9597 ft | 275 kts | 224° |
| 2026-04-26 09:30 | 47.71489 | -121.93590 | 9299 ft | 282 kts | 224° |
| 2026-04-26 09:30 | 47.70021 | -121.95568 | 8992 ft | 288 kts | 223° |
| 2026-04-26 09:30 | 47.68532 | -121.97569 | 8675 ft | 290 kts | 223° |
| 2026-04-26 09:30 | 47.67035 | -121.99578 | 8357 ft | 288 kts | 223° |
| 2026-04-26 09:31 | 47.65558 | -122.01565 | 8038 ft | 285 kts | 223° |
| 2026-04-26 09:31 | 47.64098 | -122.03526 | 7724 ft | 282 kts | 223° |
| 2026-04-26 09:31 | 47.62671 | -122.05500 | 7403 ft | 280 kts | 224° |
| 2026-04-26 09:31 | 47.61270 | -122.07498 | 7081 ft | 279 kts | 225° |
| 2026-04-26 09:32 | 47.59882 | -122.09488 | 6739 ft | 277 kts | 225° |
| 2026-04-26 09:32 | 47.58496 | -122.11470 | 6396 ft | 275 kts | 225° |
| 2026-04-26 09:32 | 47.57123 | -122.13439 | 6036 ft | 275 kts | 225° |
| 2026-04-26 09:32 | 47.55786 | -122.15366 | 5967 ft | 264 kts | 225° |
| 2026-04-26 09:33 | 47.54461 | -122.17269 | 5641 ft | 273 kts | 225° |
| 2026-04-26 09:33 | 47.53084 | -122.19241 | 5155 ft | 273 kts | 225° |
| 2026-04-26 09:33 | 47.51736 | -122.21175 | 4635 ft | 266 kts | 225° |
| 2026-04-26 09:33 | 47.50419 | -122.23069 | 4133 ft | 262 kts | 225° |
| 2026-04-26 09:34 | 47.49160 | -122.24895 | 3993 ft | 242 kts | 225° |
| 2026-04-26 09:34 | 47.48004 | -122.26584 | 3991 ft | 225 kts | 225° |
| 2026-04-26 09:34 | 47.46899 | -122.28191 | 3982 ft | 217 kts | 225° |
| 2026-04-26 09:34 | 47.45815 | -122.29753 | 3990 ft | 219 kts | 225° |
| 2026-04-26 09:35 | 47.44699 | -122.31365 | 3613 ft | 228 kts | 225° |
| 2026-04-26 09:35 | 47.43757 | -122.33194 | 3043 ft | 227 kts | 246° |
| 2026-04-26 09:35 | 47.43389 | -122.35323 | 2942 ft | 202 kts | 270° |
| 2026-04-26 09:35 | 47.43643 | -122.37226 | 2992 ft | 180 kts | 286° |
| 2026-04-26 09:36 | 47.44185 | -122.38862 | 2946 ft | 174 kts | 313° |
| 2026-04-26 09:36 | 47.45199 | -122.39878 | 2998 ft | 175 kts | 330° |
| 2026-04-26 09:36 | 47.46286 | -122.40648 | 3007 ft | 172 kts | 338° |
| 2026-04-26 09:36 | 47.47409 | -122.41287 | 3012 ft | 172 kts | 339° |
| 2026-04-26 09:37 | 47.48153 | -122.41710 | 3016 ft | 174 kts | 339° |
| 2026-04-26 09:37 | 47.49692 | -122.42386 | 3000 ft | 174 kts | 345° |
| 2026-04-26 09:37 | 47.50865 | -122.42846 | 3003 ft | 173 kts | 345° |
| 2026-04-26 09:37 | 47.52019 | -122.43297 | 2994 ft | 170 kts | 345° |
| 2026-04-26 09:38 | 47.52782 | -122.43596 | 2988 ft | 173 kts | 345° |
| 2026-04-26 09:38 | 47.53944 | -122.44046 | 2993 ft | 174 kts | 345° |
| 2026-04-26 09:38 | 47.55119 | -122.44513 | 3020 ft | 177 kts | 344° |
| 2026-04-26 09:38 | 47.56304 | -122.44982 | 2984 ft | 175 kts | 345° |
| 2026-04-26 09:39 | 47.57466 | -122.45438 | 2995 ft | 172 kts | 345° |
| 2026-04-26 09:39 | 47.58632 | -122.45896 | 2997 ft | 172 kts | 344° |
| 2026-04-26 09:39 | 47.59795 | -122.46349 | 2998 ft | 174 kts | 345° |
| 2026-04-26 09:39 | 47.60971 | -122.46805 | 2853 ft | 179 kts | 345° |
| 2026-04-26 09:40 | 47.62236 | -122.46715 | 2175 ft | 195 kts | 22° |
| 2026-04-26 09:40 | 47.63097 | -122.45242 | 1663 ft | 189 kts | 74° |
| 2026-04-26 09:40 | 47.62893 | -122.43522 | 1637 ft | 166 kts | 118° |
| 2026-04-26 09:40 | 47.62326 | -122.42082 | 1776 ft | 161 kts | 119° |
| 2026-04-26 09:41 | 47.61888 | -122.40761 | 1867 ft | 129 kts | 113° |
| 2026-04-26 09:41 | 47.61550 | -122.39525 | 1965 ft | 126 kts | 114° |
| 2026-04-26 09:41 | 47.61215 | -122.38327 | 1870 ft | 129 kts | 114° |
| 2026-04-26 09:41 | 47.60816 | -122.37089 | 1528 ft | 134 kts | 128° |
| 2026-04-26 09:42 | 47.60029 | -122.36326 | 1342 ft | 132 kts | 148° |
| 2026-04-26 09:42 | 47.59244 | -122.35602 | 1207 ft | 135 kts | 148° |
| 2026-04-26 09:42 | 47.58442 | -122.34890 | 1026 ft | 133 kts | 148° |
| 2026-04-26 09:42 | 47.57658 | -122.34186 | 854 ft | 131 kts | 149° |
| 2026-04-26 09:43 | 47.56884 | -122.33510 | 678 ft | 130 kts | 150° |
| 2026-04-26 09:43 | 47.56098 | -122.32850 | 502 ft | 130 kts | 151° |
| 2026-04-26 09:43 | 47.55314 | -122.32193 | 326 ft | 129 kts | 150° |
| 2026-04-26 09:43 | 47.54541 | -122.31542 | 142 ft | 127 kts | 150° |
| 2026-04-26 09:44 | 47.53792 | -122.30912 | 37 ft | 119 kts | 150° |
| 2026-04-26 09:44 | 47.53158 | -122.30379 | 27 ft | 79 kts | 150° |
| 2026-04-26 09:44 | 47.52805 | -122.30078 | 23 ft | 33 kts | 150° |
| 2026-04-26 09:44 | 47.52712 | -122.29942 | 20 ft | 16 kts | 82° |
| 2026-04-26 09:45 | 47.52754 | -122.29862 | 22 ft | 15 kts | 28° |